sensor_id;sensor_type;location;lat;lon;timestamp;P1;durP1;ratioP1;P2;durP2;ratioP2
15116;SDS011;7659;51.038;13.786;2022-09-09T00:01:39;5.20;;;5.00;;
15116;SDS011;7659;51.038;13.786;2022-09-09T00:07:07;5.87;;;5.57;;
15116;SDS011;7659;51.038;13.786;2022-09-09T00:09:41;6.07;;;5.77;;
15116;SDS011;7659;51.038;13.786;2022-09-09T00:12:11;6.23;;;5.93;;
15116;SDS011;7659;51.038;13.786;2022-09-09T00:17:08;5.63;;;5.40;;
15116;SDS011;7659;51.038;13.786;2022-09-09T00:19:40;6.20;;;5.90;;
15116;SDS011;7659;51.038;13.786;2022-09-09T00:22:15;5.30;;;5.10;;
15116;SDS011;7659;51.038;13.786;2022-09-09T00:29:56;5.20;;;5.00;;
15116;SDS011;7659;51.038;13.786;2022-09-09T00:32:24;4.90;;;4.70;;
15116;SDS011;7659;51.038;13.786;2022-09-09T00:34:59;5.20;;;5.00;;
15116;SDS011;7659;51.038;13.786;2022-09-09T00:37:28;5.13;;;4.93;;
15116;SDS011;7659;51.038;13.786;2022-09-09T00:39:55;5.33;;;5.13;;
15116;SDS011;7659;51.038;13.786;2022-09-09T00:42:43;4.80;;;4.60;;
15116;SDS011;7659;51.038;13.786;2022-09-09T00:45:27;5.03;;;4.83;;
15116;SDS011;7659;51.038;13.786;2022-09-09T00:48:16;5.23;;;5.03;;
15116;SDS011;7659;51.038;13.786;2022-09-09T00:50:47;5.50;;;5.30;;
15116;SDS011;7659;51.038;13.786;2022-09-09T00:53:31;5.00;;;4.80;;
15116;SDS011;7659;51.038;13.786;2022-09-09T00:56:14;5.43;;;5.23;;
15116;SDS011;7659;51.038;13.786;2022-09-09T00:58:47;5.00;;;4.80;;
15116;SDS011;7659;51.038;13.786;2022-09-09T01:01:23;5.00;;;4.80;;
15116;SDS011;7659;51.038;13.786;2022-09-09T01:03:52;4.87;;;4.67;;
15116;SDS011;7659;51.038;13.786;2022-09-09T01:06:35;5.10;;;4.90;;
15116;SDS011;7659;51.038;13.786;2022-09-09T01:17:17;5.83;;;5.53;;
15116;SDS011;7659;51.038;13.786;2022-09-09T01:20:10;5.77;;;5.47;;
15116;SDS011;7659;51.038;13.786;2022-09-09T01:28:44;5.40;;;5.20;;
15116;SDS011;7659;51.038;13.786;2022-09-09T01:31:18;5.50;;;5.30;;
15116;SDS011;7659;51.038;13.786;2022-09-09T01:33:46;6.10;;;5.80;;
15116;SDS011;7659;51.038;13.786;2022-09-09T01:39:08;5.77;;;5.50;;
15116;SDS011;7659;51.038;13.786;2022-09-09T01:41:35;5.90;;;5.60;;
15116;SDS011;7659;51.038;13.786;2022-09-09T01:44:04;5.90;;;5.60;;
15116;SDS011;7659;51.038;13.786;2022-09-09T01:46:33;5.53;;;5.33;;
15116;SDS011;7659;51.038;13.786;2022-09-09T01:49:00;5.73;;;5.47;;
15116;SDS011;7659;51.038;13.786;2022-09-09T01:51:29;5.40;;;5.20;;
15116;SDS011;7659;51.038;13.786;2022-09-09T01:53:57;5.17;;;4.97;;
15116;SDS011;7659;51.038;13.786;2022-09-09T01:56:29;5.10;;;4.90;;
15116;SDS011;7659;51.038;13.786;2022-09-09T02:05:25;5.70;;;5.40;;
15116;SDS011;7659;51.038;13.786;2022-09-09T02:08:20;5.30;;;5.10;;
15116;SDS011;7659;51.038;13.786;2022-09-09T02:10:58;5.00;;;4.80;;
15116;SDS011;7659;51.038;13.786;2022-09-09T02:13:35;5.10;;;4.90;;
15116;SDS011;7659;51.038;13.786;2022-09-09T02:16:15;4.93;;;4.73;;
15116;SDS011;7659;51.038;13.786;2022-09-09T02:19:31;4.80;;;4.60;;
15116;SDS011;7659;51.038;13.786;2022-09-09T02:22:18;5.20;;;5.00;;
15116;SDS011;7659;51.038;13.786;2022-09-09T02:24:45;4.57;;;4.37;;
15116;SDS011;7659;51.038;13.786;2022-09-09T02:27:18;4.60;;;4.40;;
15116;SDS011;7659;51.038;13.786;2022-09-09T02:29:46;4.27;;;4.07;;
15116;SDS011;7659;51.038;13.786;2022-09-09T02:32:20;4.93;;;4.73;;
15116;SDS011;7659;51.038;13.786;2022-09-09T02:34:49;4.70;;;4.50;;
15116;SDS011;7659;51.038;13.786;2022-09-09T02:37:20;4.97;;;4.77;;
15116;SDS011;7659;51.038;13.786;2022-09-09T02:39:51;4.80;;;4.60;;
15116;SDS011;7659;51.038;13.786;2022-09-09T02:42:19;4.70;;;4.50;;
15116;SDS011;7659;51.038;13.786;2022-09-09T02:44:45;4.40;;;4.20;;
15116;SDS011;7659;51.038;13.786;2022-09-09T02:50:15;4.70;;;4.50;;
15116;SDS011;7659;51.038;13.786;2022-09-09T02:56:17;4.90;;;4.70;;
15116;SDS011;7659;51.038;13.786;2022-09-09T02:58:25;4.80;;;4.60;;
15116;SDS011;7659;51.038;13.786;2022-09-09T03:01:02;4.07;;;3.87;;
15116;SDS011;7659;51.038;13.786;2022-09-09T03:03:29;3.97;;;3.77;;
15116;SDS011;7659;51.038;13.786;2022-09-09T03:05:56;4.40;;;4.20;;
15116;SDS011;7659;51.038;13.786;2022-09-09T03:08:22;4.80;;;4.60;;
15116;SDS011;7659;51.038;13.786;2022-09-09T03:10:48;5.00;;;4.80;;
15116;SDS011;7659;51.038;13.786;2022-09-09T03:13:14;5.10;;;4.90;;
15116;SDS011;7659;51.038;13.786;2022-09-09T03:15:41;4.67;;;4.47;;
15116;SDS011;7659;51.038;13.786;2022-09-09T03:18:10;4.40;;;4.20;;
15116;SDS011;7659;51.038;13.786;2022-09-09T03:20:36;4.20;;;4.00;;
15116;SDS011;7659;51.038;13.786;2022-09-09T03:23:02;4.30;;;4.10;;
15116;SDS011;7659;51.038;13.786;2022-09-09T03:25:28;3.70;;;3.50;;
15116;SDS011;7659;51.038;13.786;2022-09-09T03:27:54;3.73;;;3.53;;
15116;SDS011;7659;51.038;13.786;2022-09-09T03:30:25;3.83;;;3.63;;
15116;SDS011;7659;51.038;13.786;2022-09-09T03:32:54;4.13;;;3.93;;
15116;SDS011;7659;51.038;13.786;2022-09-09T03:35:21;4.10;;;3.90;;
15116;SDS011;7659;51.038;13.786;2022-09-09T03:37:47;4.57;;;4.37;;
15116;SDS011;7659;51.038;13.786;2022-09-09T03:40:14;4.30;;;4.10;;
15116;SDS011;7659;51.038;13.786;2022-09-09T03:42:42;3.00;;;2.90;;
15116;SDS011;7659;51.038;13.786;2022-09-09T03:45:09;2.67;;;2.57;;
15116;SDS011;7659;51.038;13.786;2022-09-09T03:47:37;2.40;;;2.30;;
15116;SDS011;7659;51.038;13.786;2022-09-09T03:50:05;2.00;;;1.90;;
15116;SDS011;7659;51.038;13.786;2022-09-09T03:52:35;1.30;;;1.30;;
15116;SDS011;7659;51.038;13.786;2022-09-09T03:55:02;0.90;;;0.90;;
15116;SDS011;7659;51.038;13.786;2022-09-09T03:57:28;0.70;;;0.70;;
15116;SDS011;7659;51.038;13.786;2022-09-09T03:59:55;0.50;;;0.50;;
15116;SDS011;7659;51.038;13.786;2022-09-09T04:02:21;0.50;;;0.50;;
15116;SDS011;7659;51.038;13.786;2022-09-09T04:04:46;0.37;;;0.37;;
15116;SDS011;7659;51.038;13.786;2022-09-09T04:07:12;0.50;;;0.50;;
15116;SDS011;7659;51.038;13.786;2022-09-09T04:09:39;0.40;;;0.40;;
15116;SDS011;7659;51.038;13.786;2022-09-09T04:12:04;0.40;;;0.40;;
15116;SDS011;7659;51.038;13.786;2022-09-09T04:14:33;0.40;;;0.40;;
15116;SDS011;7659;51.038;13.786;2022-09-09T04:16:58;0.60;;;0.60;;
15116;SDS011;7659;51.038;13.786;2022-09-09T04:19:25;0.40;;;0.40;;
15116;SDS011;7659;51.038;13.786;2022-09-09T04:21:51;0.60;;;0.60;;
15116;SDS011;7659;51.038;13.786;2022-09-09T04:24:18;0.60;;;0.60;;
15116;SDS011;7659;51.038;13.786;2022-09-09T04:26:44;0.60;;;0.60;;
15116;SDS011;7659;51.038;13.786;2022-09-09T04:29:11;0.70;;;0.70;;
15116;SDS011;7659;51.038;13.786;2022-09-09T04:31:37;0.80;;;0.80;;
15116;SDS011;7659;51.038;13.786;2022-09-09T04:34:08;0.80;;;0.80;;
15116;SDS011;7659;51.038;13.786;2022-09-09T04:36:34;0.70;;;0.70;;
15116;SDS011;7659;51.038;13.786;2022-09-09T04:39:03;0.70;;;0.70;;
15116;SDS011;7659;51.038;13.786;2022-09-09T04:41:28;0.80;;;0.80;;
15116;SDS011;7659;51.038;13.786;2022-09-09T04:43:57;1.00;;;1.00;;
15116;SDS011;7659;51.038;13.786;2022-09-09T04:46:22;1.00;;;1.00;;
15116;SDS011;7659;51.038;13.786;2022-09-09T04:48:49;1.20;;;1.20;;
15116;SDS011;7659;51.038;13.786;2022-09-09T04:51:15;1.10;;;1.10;;
15116;SDS011;7659;51.038;13.786;2022-09-09T04:53:43;0.90;;;0.90;;
15116;SDS011;7659;51.038;13.786;2022-09-09T04:56:11;0.70;;;0.70;;
15116;SDS011;7659;51.038;13.786;2022-09-09T04:58:49;0.80;;;0.80;;
15116;SDS011;7659;51.038;13.786;2022-09-09T05:01:17;0.60;;;0.60;;
15116;SDS011;7659;51.038;13.786;2022-09-09T05:03:45;0.70;;;0.70;;
15116;SDS011;7659;51.038;13.786;2022-09-09T05:06:21;0.80;;;0.80;;
15116;SDS011;7659;51.038;13.786;2022-09-09T05:08:51;0.80;;;0.80;;
15116;SDS011;7659;51.038;13.786;2022-09-09T05:11:28;0.80;;;0.80;;
15116;SDS011;7659;51.038;13.786;2022-09-09T05:14:03;0.80;;;0.80;;
15116;SDS011;7659;51.038;13.786;2022-09-09T05:16:30;0.80;;;0.80;;
15116;SDS011;7659;51.038;13.786;2022-09-09T05:18:56;1.00;;;1.00;;
15116;SDS011;7659;51.038;13.786;2022-09-09T05:21:23;0.80;;;0.80;;
15116;SDS011;7659;51.038;13.786;2022-09-09T05:23:51;1.00;;;1.00;;
15116;SDS011;7659;51.038;13.786;2022-09-09T05:26:18;0.90;;;0.90;;
15116;SDS011;7659;51.038;13.786;2022-09-09T05:28:48;0.90;;;0.90;;
15116;SDS011;7659;51.038;13.786;2022-09-09T05:31:15;0.90;;;0.90;;
15116;SDS011;7659;51.038;13.786;2022-09-09T05:33:43;0.80;;;0.80;;
15116;SDS011;7659;51.038;13.786;2022-09-09T05:36:12;0.93;;;0.93;;
15116;SDS011;7659;51.038;13.786;2022-09-09T05:38:40;1.00;;;1.00;;
15116;SDS011;7659;51.038;13.786;2022-09-09T05:41:07;0.90;;;0.90;;
15116;SDS011;7659;51.038;13.786;2022-09-09T05:43:33;1.00;;;1.00;;
15116;SDS011;7659;51.038;13.786;2022-09-09T05:46:01;0.90;;;0.90;;
15116;SDS011;7659;51.038;13.786;2022-09-09T05:48:32;0.90;;;0.90;;
15116;SDS011;7659;51.038;13.786;2022-09-09T05:51:00;0.93;;;0.93;;
15116;SDS011;7659;51.038;13.786;2022-09-09T05:53:26;0.93;;;0.93;;
15116;SDS011;7659;51.038;13.786;2022-09-09T05:55:59;1.00;;;1.00;;
15116;SDS011;7659;51.038;13.786;2022-09-09T05:58:33;1.00;;;1.00;;
15116;SDS011;7659;51.038;13.786;2022-09-09T06:01:01;0.90;;;0.90;;
15116;SDS011;7659;51.038;13.786;2022-09-09T06:03:30;0.90;;;0.90;;
15116;SDS011;7659;51.038;13.786;2022-09-09T06:06:00;0.90;;;0.90;;
15116;SDS011;7659;51.038;13.786;2022-09-09T06:08:30;0.90;;;0.90;;
15116;SDS011;7659;51.038;13.786;2022-09-09T06:11:01;0.87;;;0.87;;
15116;SDS011;7659;51.038;13.786;2022-09-09T06:13:28;0.80;;;0.80;;
15116;SDS011;7659;51.038;13.786;2022-09-09T06:15:55;0.80;;;0.80;;
15116;SDS011;7659;51.038;13.786;2022-09-09T06:18:21;0.80;;;0.80;;
15116;SDS011;7659;51.038;13.786;2022-09-09T06:20:56;0.80;;;0.80;;
15116;SDS011;7659;51.038;13.786;2022-09-09T06:23:24;0.87;;;0.87;;
15116;SDS011;7659;51.038;13.786;2022-09-09T06:25:51;0.83;;;0.83;;
15116;SDS011;7659;51.038;13.786;2022-09-09T06:28:17;0.80;;;0.80;;
15116;SDS011;7659;51.038;13.786;2022-09-09T06:30:44;0.70;;;0.70;;
15116;SDS011;7659;51.038;13.786;2022-09-09T06:33:11;0.80;;;0.80;;
15116;SDS011;7659;51.038;13.786;2022-09-09T06:35:36;0.80;;;0.80;;
15116;SDS011;7659;51.038;13.786;2022-09-09T06:38:02;0.70;;;0.70;;
15116;SDS011;7659;51.038;13.786;2022-09-09T06:40:29;0.70;;;0.70;;
15116;SDS011;7659;51.038;13.786;2022-09-09T06:42:59;0.70;;;0.70;;
15116;SDS011;7659;51.038;13.786;2022-09-09T06:45:34;0.80;;;0.80;;
15116;SDS011;7659;51.038;13.786;2022-09-09T06:48:02;0.70;;;0.70;;
15116;SDS011;7659;51.038;13.786;2022-09-09T06:50:28;0.70;;;0.70;;
15116;SDS011;7659;51.038;13.786;2022-09-09T06:52:54;0.80;;;0.80;;
15116;SDS011;7659;51.038;13.786;2022-09-09T06:55:19;0.70;;;0.70;;
15116;SDS011;7659;51.038;13.786;2022-09-09T06:57:46;0.60;;;0.60;;
15116;SDS011;7659;51.038;13.786;2022-09-09T07:00:16;0.50;;;0.50;;
15116;SDS011;7659;51.038;13.786;2022-09-09T07:02:42;0.50;;;0.50;;
15116;SDS011;7659;51.038;13.786;2022-09-09T07:05:09;0.60;;;0.60;;
15116;SDS011;7659;51.038;13.786;2022-09-09T07:07:35;0.60;;;0.60;;
15116;SDS011;7659;51.038;13.786;2022-09-09T07:10:00;0.40;;;0.40;;
15116;SDS011;7659;51.038;13.786;2022-09-09T07:12:26;0.30;;;0.30;;
15116;SDS011;7659;51.038;13.786;2022-09-09T07:14:56;0.23;;;0.23;;
15116;SDS011;7659;51.038;13.786;2022-09-09T07:17:22;0.30;;;0.30;;
15116;SDS011;7659;51.038;13.786;2022-09-09T07:19:48;0.20;;;0.20;;
15116;SDS011;7659;51.038;13.786;2022-09-09T07:22:15;0.30;;;0.30;;
15116;SDS011;7659;51.038;13.786;2022-09-09T07:24:42;0.30;;;0.30;;
15116;SDS011;7659;51.038;13.786;2022-09-09T07:27:11;0.20;;;0.20;;
15116;SDS011;7659;51.038;13.786;2022-09-09T07:29:37;0.23;;;0.23;;
15116;SDS011;7659;51.038;13.786;2022-09-09T07:32:03;0.27;;;0.27;;
15116;SDS011;7659;51.038;13.786;2022-09-09T07:34:33;0.50;;;0.50;;
15116;SDS011;7659;51.038;13.786;2022-09-09T07:36:59;1.50;;;1.50;;
15116;SDS011;7659;51.038;13.786;2022-09-09T07:39:25;3.60;;;3.40;;
15116;SDS011;7659;51.038;13.786;2022-09-09T07:41:52;1.40;;;1.40;;
15116;SDS011;7659;51.038;13.786;2022-09-09T07:44:22;1.53;;;1.53;;
15116;SDS011;7659;51.038;13.786;2022-09-09T07:46:57;1.87;;;1.80;;
15116;SDS011;7659;51.038;13.786;2022-09-09T07:49:28;2.27;;;2.17;;
15116;SDS011;7659;51.038;13.786;2022-09-09T07:51:54;2.53;;;2.43;;
15116;SDS011;7659;51.038;13.786;2022-09-09T07:54:19;4.60;;;4.40;;
15116;SDS011;7659;51.038;13.786;2022-09-09T07:56:49;4.30;;;4.10;;
15116;SDS011;7659;51.038;13.786;2022-09-09T07:59:15;4.78;;;4.57;;
15116;SDS011;7659;51.038;13.786;2022-09-09T08:01:45;4.10;;;3.90;;
15116;SDS011;7659;51.038;13.786;2022-09-09T08:04:16;3.90;;;3.70;;
15116;SDS011;7659;51.038;13.786;2022-09-09T08:06:56;3.90;;;3.70;;
15116;SDS011;7659;51.038;13.786;2022-09-09T08:09:24;3.60;;;3.40;;
15116;SDS011;7659;51.038;13.786;2022-09-09T08:11:53;4.00;;;3.80;;
15116;SDS011;7659;51.038;13.786;2022-09-09T08:14:18;4.10;;;3.90;;
15116;SDS011;7659;51.038;13.786;2022-09-09T08:16:46;4.00;;;3.80;;
15116;SDS011;7659;51.038;13.786;2022-09-09T08:19:15;3.60;;;3.40;;
15116;SDS011;7659;51.038;13.786;2022-09-09T08:21:43;4.20;;;4.00;;
15116;SDS011;7659;51.038;13.786;2022-09-09T08:24:10;3.70;;;3.50;;
15116;SDS011;7659;51.038;13.786;2022-09-09T08:26:37;4.10;;;3.90;;
15116;SDS011;7659;51.038;13.786;2022-09-09T08:29:05;3.90;;;3.70;;
15116;SDS011;7659;51.038;13.786;2022-09-09T08:31:36;4.00;;;3.80;;
15116;SDS011;7659;51.038;13.786;2022-09-09T08:34:05;4.10;;;3.90;;
15116;SDS011;7659;51.038;13.786;2022-09-09T08:36:33;3.90;;;3.70;;
15116;SDS011;7659;51.038;13.786;2022-09-09T08:39:01;4.00;;;3.80;;
15116;SDS011;7659;51.038;13.786;2022-09-09T08:49:53;4.20;;;4.00;;
15116;SDS011;7659;51.038;13.786;2022-09-09T08:55:55;4.10;;;3.90;;
15116;SDS011;7659;51.038;13.786;2022-09-09T08:58:47;4.22;;;4.03;;
15116;SDS011;7659;51.038;13.786;2022-09-09T09:01:32;4.25;;;4.05;;
15116;SDS011;7659;51.038;13.786;2022-09-09T09:09:58;3.90;;;3.70;;
15116;SDS011;7659;51.038;13.786;2022-09-09T09:12:43;4.03;;;3.83;;
15116;SDS011;7659;51.038;13.786;2022-09-09T09:15:15;3.90;;;3.70;;
15116;SDS011;7659;51.038;13.786;2022-09-09T09:17:43;3.80;;;3.60;;
15116;SDS011;7659;51.038;13.786;2022-09-09T09:20:16;4.05;;;3.85;;
15116;SDS011;7659;51.038;13.786;2022-09-09T09:22:48;4.25;;;4.05;;
15116;SDS011;7659;51.038;13.786;2022-09-09T09:25:21;4.60;;;4.40;;
15116;SDS011;7659;51.038;13.786;2022-09-09T09:28:11;4.30;;;4.10;;
15116;SDS011;7659;51.038;13.786;2022-09-09T09:33:25;4.20;;;4.00;;
15116;SDS011;7659;51.038;13.786;2022-09-09T09:36:13;4.03;;;3.83;;
15116;SDS011;7659;51.038;13.786;2022-09-09T09:38:55;4.10;;;3.90;;
15116;SDS011;7659;51.038;13.786;2022-09-09T09:41:30;4.10;;;3.90;;
15116;SDS011;7659;51.038;13.786;2022-09-09T09:43:56;4.05;;;3.85;;
15116;SDS011;7659;51.038;13.786;2022-09-09T09:46:23;4.20;;;4.00;;
15116;SDS011;7659;51.038;13.786;2022-09-09T09:49:00;3.60;;;3.40;;
15116;SDS011;7659;51.038;13.786;2022-09-09T09:51:31;3.30;;;3.20;;
15116;SDS011;7659;51.038;13.786;2022-09-09T09:56:39;4.25;;;4.05;;
15116;SDS011;7659;51.038;13.786;2022-09-09T09:59:18;4.43;;;4.22;;
15116;SDS011;7659;51.038;13.786;2022-09-09T10:01:49;4.10;;;3.90;;
15116;SDS011;7659;51.038;13.786;2022-09-09T10:04:17;4.50;;;4.30;;
15116;SDS011;7659;51.038;13.786;2022-09-09T10:06:46;4.60;;;4.40;;
15116;SDS011;7659;51.038;13.786;2022-09-09T10:09:20;4.35;;;4.15;;
15116;SDS011;7659;51.038;13.786;2022-09-09T10:14:21;4.30;;;4.10;;
15116;SDS011;7659;51.038;13.786;2022-09-09T10:16:59;3.88;;;3.67;;
15116;SDS011;7659;51.038;13.786;2022-09-09T10:19:35;3.70;;;3.50;;
15116;SDS011;7659;51.038;13.786;2022-09-09T10:30:30;4.35;;;4.15;;
15116;SDS011;7659;51.038;13.786;2022-09-09T10:33:04;3.72;;;3.53;;
15116;SDS011;7659;51.038;13.786;2022-09-09T10:38:10;4.13;;;3.92;;
15116;SDS011;7659;51.038;13.786;2022-09-09T10:51:40;4.90;;;4.70;;
15116;SDS011;7659;51.038;13.786;2022-09-09T10:57:08;5.10;;;4.90;;
15116;SDS011;7659;51.038;13.786;2022-09-09T10:59:45;5.10;;;4.90;;
15116;SDS011;7659;51.038;13.786;2022-09-09T11:02:15;4.30;;;4.10;;
15116;SDS011;7659;51.038;13.786;2022-09-09T11:04:55;4.90;;;4.70;;
15116;SDS011;7659;51.038;13.786;2022-09-09T11:07:27;4.40;;;4.20;;
15116;SDS011;7659;51.038;13.786;2022-09-09T11:09:59;3.95;;;3.75;;
15116;SDS011;7659;51.038;13.786;2022-09-09T11:12:28;4.70;;;4.50;;
15116;SDS011;7659;51.038;13.786;2022-09-09T11:14:59;4.43;;;4.22;;
15116;SDS011;7659;51.038;13.786;2022-09-09T11:17:33;4.20;;;4.00;;
15116;SDS011;7659;51.038;13.786;2022-09-09T11:20:10;4.03;;;3.83;;
15116;SDS011;7659;51.038;13.786;2022-09-09T11:22:37;4.30;;;4.10;;
15116;SDS011;7659;51.038;13.786;2022-09-09T11:39:30;4.22;;;4.03;;
15116;SDS011;7659;51.038;13.786;2022-09-09T11:42:22;4.75;;;4.55;;
15116;SDS011;7659;51.038;13.786;2022-09-09T11:44:49;3.33;;;3.22;;
15116;SDS011;7659;51.038;13.786;2022-09-09T11:47:28;4.47;;;4.28;;
15116;SDS011;7659;51.038;13.786;2022-09-09T11:50:06;4.00;;;3.80;;
15116;SDS011;7659;51.038;13.786;2022-09-09T11:52:48;3.40;;;3.22;;
15116;SDS011;7659;51.038;13.786;2022-09-09T11:58:03;3.70;;;3.50;;
15116;SDS011;7659;51.038;13.786;2022-09-09T12:00:49;4.20;;;4.00;;
15116;SDS011;7659;51.038;13.786;2022-09-09T12:03:38;4.40;;;4.20;;
15116;SDS011;7659;51.038;13.786;2022-09-09T12:06:11;4.10;;;3.90;;
15116;SDS011;7659;51.038;13.786;2022-09-09T12:08:45;4.30;;;4.10;;
15116;SDS011;7659;51.038;13.786;2022-09-09T12:11:23;4.10;;;3.90;;
15116;SDS011;7659;51.038;13.786;2022-09-09T12:13:57;3.97;;;3.78;;
15116;SDS011;7659;51.038;13.786;2022-09-09T12:19:21;2.75;;;2.65;;
15116;SDS011;7659;51.038;13.786;2022-09-09T12:32:27;0.30;;;0.30;;
15116;SDS011;7659;51.038;13.786;2022-09-09T12:34:55;0.30;;;0.30;;
15116;SDS011;7659;51.038;13.786;2022-09-09T12:40:18;0.30;;;0.30;;
15116;SDS011;7659;51.038;13.786;2022-09-09T12:42:45;0.30;;;0.30;;
15116;SDS011;7659;51.038;13.786;2022-09-09T12:45:15;0.30;;;0.30;;
15116;SDS011;7659;51.038;13.786;2022-09-09T12:47:51;0.30;;;0.30;;
15116;SDS011;7659;51.038;13.786;2022-09-09T12:50:21;0.30;;;0.30;;
15116;SDS011;7659;51.038;13.786;2022-09-09T12:52:54;0.30;;;0.30;;
15116;SDS011;7659;51.038;13.786;2022-09-09T12:55:21;0.30;;;0.30;;
15116;SDS011;7659;51.038;13.786;2022-09-09T12:58:00;0.30;;;0.30;;
15116;SDS011;7659;51.038;13.786;2022-09-09T13:00:29;0.30;;;0.30;;
15116;SDS011;7659;51.038;13.786;2022-09-09T13:02:57;0.30;;;0.30;;
15116;SDS011;7659;51.038;13.786;2022-09-09T13:05:28;4.50;;;4.30;;
15116;SDS011;7659;51.038;13.786;2022-09-09T13:08:06;3.15;;;3.05;;
15116;SDS011;7659;51.038;13.786;2022-09-09T13:10:36;1.20;;;1.20;;
15116;SDS011;7659;51.038;13.786;2022-09-09T13:13:05;1.60;;;1.60;;
15116;SDS011;7659;51.038;13.786;2022-09-09T13:15:48;0.50;;;0.50;;
15116;SDS011;7659;51.038;13.786;2022-09-09T13:18:25;3.72;;;3.53;;
15116;SDS011;7659;51.038;13.786;2022-09-09T13:20:52;0.50;;;0.50;;
15116;SDS011;7659;51.038;13.786;2022-09-09T13:23:19;2.70;;;2.60;;
15116;SDS011;7659;51.038;13.786;2022-09-09T13:28:43;3.00;;;2.90;;
15116;SDS011;7659;51.038;13.786;2022-09-09T13:33:52;3.30;;;3.20;;
15116;SDS011;7659;51.038;13.786;2022-09-09T13:36:27;4.35;;;4.15;;
15116;SDS011;7659;51.038;13.786;2022-09-09T13:38:54;6.30;;;6.00;;
15116;SDS011;7659;51.038;13.786;2022-09-09T13:41:22;6.63;;;6.32;;
15116;SDS011;7659;51.038;13.786;2022-09-09T13:43:50;4.30;;;4.10;;
15116;SDS011;7659;51.038;13.786;2022-09-09T13:49:18;3.20;;;3.10;;
15116;SDS011;7659;51.038;13.786;2022-09-09T13:51:47;0.50;;;0.50;;
15116;SDS011;7659;51.038;13.786;2022-09-09T13:54:16;0.50;;;0.50;;
15116;SDS011;7659;51.038;13.786;2022-09-09T13:56:43;0.40;;;0.40;;
15116;SDS011;7659;51.038;13.786;2022-09-09T13:59:13;0.50;;;0.50;;
15116;SDS011;7659;51.038;13.786;2022-09-09T14:01:40;1.95;;;1.85;;
15116;SDS011;7659;51.038;13.786;2022-09-09T14:04:06;0.88;;;0.88;;
15116;SDS011;7659;51.038;13.786;2022-09-09T14:06:34;0.40;;;0.40;;
15116;SDS011;7659;51.038;13.786;2022-09-09T14:09:02;0.43;;;0.43;;
15116;SDS011;7659;51.038;13.786;2022-09-09T14:11:28;0.40;;;0.40;;
15116;SDS011;7659;51.038;13.786;2022-09-09T14:13:54;0.30;;;0.30;;
15116;SDS011;7659;51.038;13.786;2022-09-09T14:16:19;0.50;;;0.50;;
15116;SDS011;7659;51.038;13.786;2022-09-09T14:18:46;1.48;;;1.48;;
15116;SDS011;7659;51.038;13.786;2022-09-09T14:21:13;0.98;;;0.98;;
15116;SDS011;7659;51.038;13.786;2022-09-09T14:23:39;0.80;;;0.80;;
15116;SDS011;7659;51.038;13.786;2022-09-09T14:26:05;1.30;;;1.30;;
15116;SDS011;7659;51.038;13.786;2022-09-09T14:28:31;1.33;;;1.33;;
15116;SDS011;7659;51.038;13.786;2022-09-09T14:31:02;2.90;;;2.80;;
15116;SDS011;7659;51.038;13.786;2022-09-09T14:33:29;3.00;;;2.90;;
15116;SDS011;7659;51.038;13.786;2022-09-09T14:35:58;2.00;;;1.90;;
15116;SDS011;7659;51.038;13.786;2022-09-09T14:38:25;1.70;;;1.70;;
15116;SDS011;7659;51.038;13.786;2022-09-09T14:40:53;1.70;;;1.70;;
15116;SDS011;7659;51.038;13.786;2022-09-09T14:43:19;2.00;;;1.90;;
15116;SDS011;7659;51.038;13.786;2022-09-09T14:45:45;2.10;;;2.00;;
15116;SDS011;7659;51.038;13.786;2022-09-09T14:48:13;1.40;;;1.40;;
15116;SDS011;7659;51.038;13.786;2022-09-09T14:50:40;1.60;;;1.60;;
15116;SDS011;7659;51.038;13.786;2022-09-09T14:53:06;1.90;;;1.80;;
15116;SDS011;7659;51.038;13.786;2022-09-09T14:55:34;1.80;;;1.70;;
15116;SDS011;7659;51.038;13.786;2022-09-09T14:58:00;1.63;;;1.63;;
15116;SDS011;7659;51.038;13.786;2022-09-09T15:00:25;1.70;;;1.70;;
15116;SDS011;7659;51.038;13.786;2022-09-09T15:02:52;1.50;;;1.50;;
15116;SDS011;7659;51.038;13.786;2022-09-09T15:05:18;1.50;;;1.50;;
15116;SDS011;7659;51.038;13.786;2022-09-09T15:07:44;1.50;;;1.50;;
15116;SDS011;7659;51.038;13.786;2022-09-09T15:10:10;1.20;;;1.20;;
15116;SDS011;7659;51.038;13.786;2022-09-09T15:12:36;1.40;;;1.40;;
15116;SDS011;7659;51.038;13.786;2022-09-09T15:15:04;0.40;;;0.40;;
15116;SDS011;7659;51.038;13.786;2022-09-09T15:17:30;0.40;;;0.40;;
15116;SDS011;7659;51.038;13.786;2022-09-09T15:19:56;1.05;;;1.05;;
15116;SDS011;7659;51.038;13.786;2022-09-09T15:22:21;1.45;;;1.45;;
15116;SDS011;7659;51.038;13.786;2022-09-09T15:24:47;1.98;;;1.88;;
15116;SDS011;7659;51.038;13.786;2022-09-09T15:27:13;0.35;;;0.35;;
15116;SDS011;7659;51.038;13.786;2022-09-09T15:29:40;3.13;;;3.03;;
15116;SDS011;7659;51.038;13.786;2022-09-09T15:32:06;3.70;;;3.50;;
15116;SDS011;7659;51.038;13.786;2022-09-09T15:34:32;3.47;;;3.30;;
15116;SDS011;7659;51.038;13.786;2022-09-09T15:36:58;3.08;;;2.97;;
15116;SDS011;7659;51.038;13.786;2022-09-09T15:39:25;3.22;;;3.13;;
15116;SDS011;7659;51.038;13.786;2022-09-09T15:41:50;0.30;;;0.30;;
15116;SDS011;7659;51.038;13.786;2022-09-09T15:44:16;3.22;;;3.13;;
15116;SDS011;7659;51.038;13.786;2022-09-09T15:46:51;0.40;;;0.40;;
15116;SDS011;7659;51.038;13.786;2022-09-09T15:49:25;3.97;;;3.78;;
15116;SDS011;7659;51.038;13.786;2022-09-09T15:51:52;4.00;;;3.80;;
15116;SDS011;7659;51.038;13.786;2022-09-09T15:54:20;4.00;;;3.80;;
15116;SDS011;7659;51.038;13.786;2022-09-09T15:56:50;3.67;;;3.47;;
15116;SDS011;7659;51.038;13.786;2022-09-09T15:59:21;1.05;;;1.05;;
15116;SDS011;7659;51.038;13.786;2022-09-09T16:01:47;4.03;;;3.83;;
15116;SDS011;7659;51.038;13.786;2022-09-09T16:04:17;3.80;;;3.60;;
15116;SDS011;7659;51.038;13.786;2022-09-09T16:06:58;3.72;;;3.53;;
15116;SDS011;7659;51.038;13.786;2022-09-09T16:09:25;3.97;;;3.78;;
15116;SDS011;7659;51.038;13.786;2022-09-09T16:11:51;4.20;;;4.00;;
15116;SDS011;7659;51.038;13.786;2022-09-09T16:14:18;4.13;;;3.92;;
15116;SDS011;7659;51.038;13.786;2022-09-09T16:16:44;4.10;;;3.90;;
15116;SDS011;7659;51.038;13.786;2022-09-09T16:19:11;0.30;;;0.30;;
15116;SDS011;7659;51.038;13.786;2022-09-09T16:21:42;0.30;;;0.30;;
15116;SDS011;7659;51.038;13.786;2022-09-09T16:24:11;0.30;;;0.30;;
15116;SDS011;7659;51.038;13.786;2022-09-09T16:26:38;0.30;;;0.30;;
15116;SDS011;7659;51.038;13.786;2022-09-09T16:29:05;0.30;;;0.30;;
15116;SDS011;7659;51.038;13.786;2022-09-09T16:31:31;0.30;;;0.30;;
15116;SDS011;7659;51.038;13.786;2022-09-09T16:33:57;0.20;;;0.20;;
15116;SDS011;7659;51.038;13.786;2022-09-09T16:36:27;0.30;;;0.30;;
15116;SDS011;7659;51.038;13.786;2022-09-09T16:38:53;0.30;;;0.30;;
15116;SDS011;7659;51.038;13.786;2022-09-09T16:41:20;0.40;;;0.40;;
15116;SDS011;7659;51.038;13.786;2022-09-09T16:43:46;1.95;;;1.85;;
15116;SDS011;7659;51.038;13.786;2022-09-09T16:46:13;0.38;;;0.38;;
15116;SDS011;7659;51.038;13.786;2022-09-09T16:48:40;0.30;;;0.30;;
15116;SDS011;7659;51.038;13.786;2022-09-09T16:51:09;0.30;;;0.30;;
15116;SDS011;7659;51.038;13.786;2022-09-09T16:53:39;0.30;;;0.30;;
15116;SDS011;7659;51.038;13.786;2022-09-09T16:56:08;0.30;;;0.30;;
15116;SDS011;7659;51.038;13.786;2022-09-09T16:58:38;0.30;;;0.30;;
15116;SDS011;7659;51.038;13.786;2022-09-09T17:01:04;0.30;;;0.30;;
15116;SDS011;7659;51.038;13.786;2022-09-09T17:03:31;0.35;;;0.35;;
15116;SDS011;7659;51.038;13.786;2022-09-09T17:05:58;0.30;;;0.30;;
15116;SDS011;7659;51.038;13.786;2022-09-09T17:08:29;0.40;;;0.40;;
15116;SDS011;7659;51.038;13.786;2022-09-09T17:10:55;0.35;;;0.35;;
15116;SDS011;7659;51.038;13.786;2022-09-09T17:13:21;0.30;;;0.30;;
15116;SDS011;7659;51.038;13.786;2022-09-09T17:15:47;0.30;;;0.30;;
15116;SDS011;7659;51.038;13.786;2022-09-09T17:18:13;0.50;;;0.50;;